createdAt,value
2019-04-20T00:01:32.632Z,8.13
2019-04-20T00:03:58.655Z,8.12
2019-04-20T00:06:25.084Z,8.15
2019-04-20T00:08:58.739Z,8.04
2019-04-20T00:11:27.512Z,7.97
2019-04-20T00:13:54.893Z,7.85
2019-04-20T00:16:14.951Z,7.83
2019-04-20T00:18:46.799Z,7.78
2019-04-20T00:21:27.209Z,7.93
2019-04-20T00:23:54.791Z,7.71
2019-04-20T00:26:43.917Z,7.71
2019-04-20T00:29:06.901Z,7.62
2019-04-20T00:31:39.248Z,7.59
2019-04-20T00:33:57.505Z,7.60
2019-04-20T00:36:14.356Z,7.46
2019-04-20T00:38:46.360Z,7.56
2019-04-20T00:41:12.030Z,7.48
2019-04-20T00:43:39.135Z,7.47
2019-04-20T00:46:09.213Z,7.54
2019-04-20T00:48:43.099Z,7.58
2019-04-20T00:51:21.384Z,7.42
2019-04-20T00:53:34.256Z,7.43
2019-04-20T00:55:57.055Z,7.42
2019-04-20T00:58:28.902Z,7.39
2019-04-20T01:01:24.815Z,7.42
2019-04-20T01:03:37.721Z,7.44
2019-04-20T01:06:12.335Z,7.39
2019-04-20T01:08:25.399Z,7.27
2019-04-20T01:10:55.726Z,7.32
2019-04-20T01:13:20.918Z,7.20
2019-04-20T01:15:55.374Z,7.19
2019-04-20T01:18:15.304Z,7.11
2019-04-20T01:20:41.315Z,7.08
2019-04-20T01:23:12.460Z,7.17
2019-04-20T01:25:39.138Z,7.38
2019-04-20T01:28:17.665Z,7.25
2019-04-20T01:30:38.701Z,7.20
2019-04-20T01:33:12.508Z,7.16
2019-04-20T01:35:45.059Z,7.24
2019-04-20T01:38:12.569Z,7.23
2019-04-20T01:43:03.714Z,6.74
2019-04-20T01:45:44.064Z,6.89
2019-04-20T01:48:15.067Z,6.85
2019-04-20T01:51:14.110Z,6.91
2019-04-20T01:54:12.010Z,6.90
2019-04-20T01:56:53.340Z,6.91
2019-04-20T02:02:24.939Z,6.72
2019-04-20T02:05:08.771Z,7.04
2019-04-20T02:07:40.018Z,6.88
2019-04-20T02:10:34.997Z,6.76
2019-04-20T02:13:15.287Z,6.81
2019-04-20T02:15:58.953Z,6.81
2019-04-20T02:18:35.082Z,6.88
2019-04-20T02:21:15.169Z,6.79
2019-04-20T02:23:40.880Z,6.81
2019-04-20T02:26:25.775Z,6.75
2019-04-20T02:29:35.052Z,6.75
2019-04-20T02:39:19.042Z,6.64
2019-04-20T02:41:47.529Z,6.75
2019-04-20T02:47:30.754Z,6.80
2019-04-20T02:50:05.602Z,6.85
2019-04-20T02:58:05.213Z,6.65
2019-04-20T03:00:42.654Z,6.67
2019-04-20T03:06:19.503Z,6.98
2019-04-20T03:08:56.603Z,7.07
2019-04-20T03:11:59.361Z,6.90
2019-04-20T03:14:19.075Z,6.68
2019-04-20T03:17:39.069Z,6.60
2019-04-20T03:20:00.681Z,6.63
2019-04-20T03:26:16.192Z,6.48
2019-04-20T03:35:51.748Z,7.27
2019-04-20T03:38:14.220Z,6.85
2019-04-20T03:40:37.311Z,6.76
2019-04-20T03:43:22.165Z,6.69
2019-04-20T03:46:12.554Z,6.51
2019-04-20T03:48:54.742Z,6.57
2019-04-20T03:51:53.496Z,6.44
2019-04-20T04:00:22.023Z,6.42
2019-04-20T04:08:33.861Z,6.38
2019-04-20T04:11:18.898Z,6.37
2019-04-20T04:13:33.617Z,6.33
2019-04-20T04:16:10.004Z,6.46
2019-04-20T04:22:08.927Z,6.56
2019-04-20T04:27:57.040Z,6.59
2019-04-20T04:30:54.514Z,6.49
2019-04-20T04:36:07.104Z,6.48
2019-04-20T04:38:51.448Z,6.57
2019-04-20T04:41:32.048Z,6.58
2019-04-20T04:44:00.652Z,6.69
2019-04-20T04:46:16.439Z,6.61
2019-04-20T04:48:52.543Z,6.69
2019-04-20T04:55:17.496Z,6.66
2019-04-20T04:57:54.206Z,6.78
2019-04-20T05:00:34.803Z,6.80
2019-04-20T05:03:35.861Z,6.91
2019-04-20T05:06:18.611Z,6.94
2019-04-20T05:09:00.841Z,7.15
2019-04-20T05:11:44.797Z,7.64
2019-04-20T05:14:37.444Z,7.73
2019-04-20T05:21:05.903Z,7.89
2019-04-20T05:23:53.353Z,7.86
2019-04-20T05:26:53.168Z,8.04
2019-04-20T05:32:32.767Z,8.12
2019-04-20T05:35:27.205Z,8.19
2019-04-20T05:38:02.924Z,8.20
2019-04-20T05:46:42.255Z,8.53
2019-04-20T05:49:50.104Z,8.52
2019-04-20T05:52:40.238Z,8.62
2019-04-20T05:55:23.737Z,8.59
2019-04-20T05:58:10.082Z,8.59
2019-04-20T06:00:55.029Z,8.89
2019-04-20T06:06:44.361Z,8.95
2019-04-20T06:09:30.776Z,9.22
2019-04-20T06:15:18.074Z,9.81
2019-04-20T06:18:02.737Z,9.97
2019-04-20T06:21:20.047Z,10.41
2019-04-20T06:29:37.634Z,11.38
2019-04-20T06:32:20.332Z,11.39
2019-04-20T06:34:50.112Z,11.48
2019-04-20T06:37:36.231Z,11.85
2019-04-20T06:43:09.009Z,12.67
2019-04-20T06:48:42.118Z,13.38
2019-04-20T06:51:53.195Z,13.69
2019-04-20T06:54:38.465Z,13.56
2019-04-20T06:57:18.442Z,13.68
2019-04-20T07:05:31.112Z,13.98
2019-04-20T07:08:29.034Z,13.99
2019-04-20T07:10:51.390Z,14.11
2019-04-20T07:13:38.273Z,14.21
2019-04-20T07:25:26.286Z,15.02
2019-04-20T07:31:03.041Z,15.57
2019-04-20T07:33:56.927Z,15.60
2019-04-20T07:36:32.750Z,15.72
2019-04-20T07:39:13.596Z,16.14
2019-04-20T07:42:04.538Z,15.81
2019-04-20T07:44:29.878Z,16.15
2019-04-20T07:49:32.940Z,16.92
2019-04-20T07:51:48.275Z,17.38
2019-04-20T07:55:12.421Z,17.04
2019-04-20T08:06:38.108Z,17.81
2019-04-20T08:09:54.709Z,17.80
2019-04-20T08:15:34.066Z,18.35
2019-04-20T08:18:06.406Z,18.62
2019-04-20T08:20:52.428Z,18.29
2019-04-20T08:23:17.156Z,18.92
2019-04-20T08:25:43.329Z,19.59
2019-04-20T08:28:36.048Z,20.00
2019-04-20T08:37:20.797Z,19.92
2019-04-20T08:40:19.846Z,19.70
2019-04-20T08:43:05.490Z,19.89
2019-04-20T08:49:10.141Z,19.95
2019-04-20T08:51:51.249Z,19.89
2019-04-20T08:54:19.277Z,20.09
2019-04-20T08:56:39.343Z,20.13
2019-04-20T08:59:25.457Z,20.64
2019-04-20T09:01:51.620Z,20.26
2019-04-20T09:04:45.147Z,20.62
2019-04-20T09:08:02.424Z,21.50
2019-04-20T09:11:05.946Z,21.16
2019-04-20T09:13:43.249Z,21.13
2019-04-20T09:16:06.586Z,20.91
2019-04-20T09:18:54.800Z,21.44
2019-04-20T09:21:43.699Z,20.95
2019-04-20T09:24:39.944Z,20.47
2019-04-20T09:29:32.900Z,20.58
2019-04-20T09:35:48.662Z,21.89
2019-04-20T09:41:09.083Z,21.30
2019-04-20T09:43:49.367Z,21.48
2019-04-20T09:46:44.201Z,20.91
2019-04-20T09:49:15.676Z,21.66
2019-04-20T09:52:13.416Z,22.08
2019-04-20T09:55:02.730Z,22.81
2019-04-20T09:57:33.322Z,23.49
2019-04-20T10:00:48.613Z,23.42
2019-04-20T10:03:10.989Z,23.57
2019-04-20T10:05:50.136Z,23.71
2019-04-20T10:08:17.509Z,23.62
2019-04-20T10:10:51.170Z,22.75
2019-04-20T10:13:40.401Z,22.79
2019-04-20T10:16:07.941Z,23.68
2019-04-20T10:19:01.182Z,23.71
2019-04-20T10:21:41.562Z,22.33
2019-04-20T10:24:21.072Z,23.14
2019-04-20T10:26:48.249Z,22.85
2019-04-20T10:29:35.569Z,22.76
2019-04-20T10:32:16.034Z,23.65
2019-04-20T10:34:44.074Z,23.92
2019-04-20T10:37:39.763Z,23.39
2019-04-20T10:40:35.782Z,23.45
2019-04-20T10:45:42.281Z,24.57
2019-04-20T10:50:49.354Z,23.41
2019-04-20T10:53:36.610Z,23.76
2019-04-20T10:56:09.840Z,24.68
2019-04-20T10:58:57.968Z,24.59
2019-04-20T11:04:48.531Z,23.83
2019-04-20T11:07:42.154Z,24.29
2019-04-20T11:10:27.392Z,24.27
2019-04-20T11:12:50.524Z,24.10
2019-04-20T11:15:24.372Z,24.43
2019-04-20T11:21:30.325Z,23.74
2019-04-20T11:24:10.134Z,24.78
2019-04-20T11:26:38.264Z,25.12
2019-04-20T11:29:30.313Z,25.08
2019-04-20T11:31:58.134Z,25.22
2019-04-20T11:34:51.322Z,25.07
2019-04-20T11:37:31.133Z,24.33
2019-04-20T11:39:57.260Z,24.55
2019-04-20T11:42:43.782Z,24.84
2019-04-20T11:45:33.008Z,24.68
2019-04-20T11:48:27.449Z,25.01
2019-04-20T11:51:29.691Z,23.18
2019-04-20T11:53:56.410Z,23.72
2019-04-20T11:57:19.597Z,23.54
2019-04-20T12:00:08.755Z,22.87
2019-04-20T12:06:17.439Z,23.52
2019-04-20T12:08:56.999Z,22.71
2019-04-20T12:11:47.543Z,22.85
2019-04-20T12:14:04.736Z,23.09
2019-04-20T12:16:39.611Z,23.61
2019-04-20T12:19:27.022Z,23.24
2019-04-20T12:22:07.618Z,23.62
2019-04-20T12:24:47.890Z,23.67
2019-04-20T12:27:27.657Z,23.50
2019-04-20T12:33:17.779Z,23.97
2019-04-20T12:35:58.255Z,23.97
2019-04-20T12:38:39.150Z,24.00
2019-04-20T12:41:31.637Z,23.22
2019-04-20T12:43:59.544Z,23.24
2019-04-20T12:46:26.786Z,23.44
2019-04-20T12:49:20.513Z,23.17
2019-04-20T12:52:05.107Z,23.65
2019-04-20T12:54:45.127Z,23.88
2019-04-20T13:00:52.142Z,24.23
2019-04-20T13:03:19.395Z,24.92
2019-04-20T13:06:13.833Z,24.59
2019-04-20T13:08:52.328Z,24.66
2019-04-20T13:11:51.640Z,24.14
2019-04-20T13:15:16.175Z,24.92
2019-04-20T13:18:03.606Z,25.08
2019-04-20T13:20:30.083Z,25.51
2019-04-20T13:23:24.781Z,25.92
2019-04-20T13:26:25.052Z,25.82
2019-04-20T13:28:51.281Z,25.68
2019-04-20T13:31:37.933Z,25.37
2019-04-20T13:34:26.401Z,24.79
2019-04-20T13:37:06.410Z,24.74
2019-04-20T13:39:46.854Z,25.15
2019-04-20T13:44:54.829Z,25.72
2019-04-20T13:47:41.108Z,25.60
2019-04-20T13:53:29.706Z,23.83
2019-04-20T13:59:25.838Z,22.90
2019-04-20T14:02:13.057Z,23.10
2019-04-20T14:08:09.683Z,22.88
2019-04-20T14:11:17.727Z,22.57
2019-04-20T14:14:06.282Z,22.78
2019-04-20T14:16:39.006Z,22.69
2019-04-20T14:19:31.924Z,22.67
2019-04-20T14:22:13.122Z,22.54
2019-04-20T14:24:40.356Z,22.70
2019-04-20T14:27:15.001Z,22.61
2019-04-20T14:30:03.352Z,22.41
2019-04-20T14:32:43.058Z,22.16
2019-04-20T14:38:10.527Z,21.66
2019-04-20T14:40:58.057Z,22.29
2019-04-20T14:43:24.930Z,22.65
2019-04-20T14:46:18.806Z,21.81
2019-04-20T14:48:45.006Z,22.01
2019-04-20T14:51:31.968Z,22.14
2019-04-20T14:54:11.870Z,21.99
2019-04-20T14:56:37.888Z,21.78
2019-04-20T15:02:28.020Z,21.87
2019-04-20T15:07:56.465Z,21.37
2019-04-20T15:10:22.740Z,21.94
2019-04-20T15:13:01.041Z,21.88
2019-04-20T15:15:48.502Z,21.43
2019-04-20T15:18:31.431Z,21.11
2019-04-20T15:21:19.576Z,21.43
2019-04-20T15:23:53.281Z,21.28
2019-04-20T15:26:40.578Z,21.54
2019-04-20T15:29:20.153Z,21.46
2019-04-20T15:32:00.014Z,21.50
2019-04-20T15:34:39.232Z,21.53
2019-04-20T15:37:18.397Z,21.38
2019-04-20T15:43:12.431Z,21.48
2019-04-20T15:45:41.138Z,21.29
2019-04-20T15:48:28.117Z,21.32
2019-04-20T15:50:54.279Z,21.22
2019-04-20T15:53:41.683Z,21.21
2019-04-20T15:56:29.132Z,21.15
2019-04-20T15:59:10.428Z,21.19
2019-04-20T16:01:51.717Z,21.36
2019-04-20T16:04:41.189Z,21.19
2019-04-20T16:10:14.948Z,20.76
2019-04-20T16:12:41.138Z,20.84
2019-04-20T16:15:27.605Z,20.49
2019-04-20T16:21:23.046Z,20.54
2019-04-20T16:24:15.021Z,20.35
2019-04-20T16:27:21.696Z,20.32
2019-04-20T16:29:47.705Z,20.29
2019-04-20T16:32:14.421Z,20.05
2019-04-20T16:35:02.774Z,19.90
2019-04-20T16:37:42.723Z,20.04
2019-04-20T16:40:23.298Z,19.73
2019-04-20T16:43:06.286Z,19.81
2019-04-20T16:45:30.608Z,19.74
2019-04-20T16:47:58.879Z,19.60
2019-04-20T16:50:24.816Z,19.54
2019-04-20T16:52:51.165Z,19.32
2019-04-20T16:55:17.184Z,19.13
2019-04-20T16:57:45.917Z,19.10
2019-04-20T17:00:13.595Z,18.98
2019-04-20T17:02:40.393Z,19.04
2019-04-20T17:05:07.281Z,18.94
2019-04-20T17:07:35.344Z,18.89
2019-04-20T17:10:02.382Z,18.81
2019-04-20T17:12:29.972Z,18.70
2019-04-20T17:14:56.202Z,18.57
2019-04-20T17:17:22.450Z,18.56
2019-04-20T17:19:49.308Z,18.51
2019-04-20T17:22:15.444Z,18.41
2019-04-20T17:24:43.024Z,18.32
2019-04-20T17:27:26.758Z,18.23
2019-04-20T17:30:01.093Z,17.99
2019-04-20T17:32:29.619Z,18.04
2019-04-20T17:35:09.996Z,17.94
2019-04-20T17:37:24.579Z,18.02
2019-04-20T17:40:31.189Z,17.87
2019-04-20T17:43:07.501Z,17.79
2019-04-20T17:46:07.965Z,17.72
2019-04-20T17:49:07.296Z,17.66
2019-04-20T17:51:34.441Z,17.55
2019-04-20T17:56:44.706Z,17.22
2019-04-20T17:59:24.318Z,17.22
2019-04-20T18:02:21.747Z,17.21
2019-04-20T18:05:27.248Z,17.11
2019-04-20T18:10:48.694Z,17.11
2019-04-20T18:13:14.273Z,17.01
2019-04-20T18:22:11.901Z,16.63
2019-04-20T18:25:18.954Z,16.59
2019-04-20T18:37:25.703Z,16.22
2019-04-20T18:39:57.466Z,15.92
2019-04-20T18:42:43.899Z,16.01
2019-04-20T18:48:30.200Z,15.93
2019-04-20T18:50:42.188Z,15.86
2019-04-20T18:53:53.465Z,15.66
2019-04-20T18:56:31.357Z,15.70
2019-04-20T18:58:59.424Z,15.58
2019-04-20T19:08:24.613Z,15.36
2019-04-20T19:11:37.546Z,15.27
2019-04-20T19:14:28.554Z,15.25
2019-04-20T19:17:29.073Z,15.28
2019-04-20T19:22:52.491Z,15.01
2019-04-20T19:25:40.965Z,15.16
2019-04-20T19:28:14.531Z,15.01
2019-04-20T19:31:25.232Z,14.82
2019-04-20T19:37:28.634Z,14.74
2019-04-20T19:40:04.015Z,14.82
2019-04-20T19:42:39.235Z,14.68
2019-04-20T19:45:27.406Z,14.64
2019-04-20T19:47:48.070Z,14.62
2019-04-20T19:51:12.887Z,14.47
2019-04-20T19:53:36.555Z,14.26
2019-04-20T19:56:03.726Z,14.19
2019-04-20T19:58:35.979Z,14.12
2019-04-20T20:01:13.647Z,14.07
2019-04-20T20:03:39.712Z,13.97
2019-04-20T20:09:32.433Z,14.01
2019-04-20T20:12:21.366Z,13.89
2019-04-20T20:14:50.926Z,13.84
2019-04-20T20:17:55.669Z,13.58
2019-04-20T20:21:00.875Z,13.39
2019-04-20T20:23:20.221Z,13.34
2019-04-20T20:26:09.029Z,13.35
2019-04-20T20:28:57.818Z,13.29
2019-04-20T20:31:47.054Z,13.33
2019-04-20T20:34:21.062Z,13.20
2019-04-20T20:36:59.782Z,13.18
2019-04-20T20:39:36.294Z,13.04
2019-04-20T20:42:12.887Z,13.02
2019-04-20T20:44:42.891Z,12.92
2019-04-20T20:47:59.014Z,12.86
2019-04-20T20:50:22.824Z,12.70
2019-04-20T20:52:46.948Z,12.79
2019-04-20T20:55:19.499Z,12.63
2019-04-20T20:58:08.599Z,12.59
2019-04-20T21:00:45.808Z,12.49
2019-04-20T21:03:19.417Z,12.43
2019-04-20T21:05:57.824Z,12.46
2019-04-20T21:11:51.983Z,12.19
2019-04-20T21:14:31.515Z,12.36
2019-04-20T21:17:15.954Z,12.44
2019-04-20T21:20:08.481Z,12.38
2019-04-20T21:22:40.314Z,12.40
2019-04-20T21:27:30.513Z,12.33
2019-04-20T21:29:59.868Z,12.20
2019-04-20T21:32:55.401Z,12.18
2019-04-20T21:39:22.063Z,12.00
2019-04-20T21:41:40.816Z,11.97
2019-04-20T21:44:19.063Z,11.85
2019-04-20T21:46:51.148Z,11.78
2019-04-20T21:49:35.948Z,11.83
2019-04-20T21:52:00.868Z,11.74
2019-04-20T21:54:48.096Z,11.88
2019-04-20T21:57:31.358Z,11.79
2019-04-20T22:03:15.514Z,11.74
2019-04-20T22:05:42.426Z,11.72
2019-04-20T22:08:51.849Z,11.70
2019-04-20T22:15:00.109Z,11.34
2019-04-20T22:18:06.807Z,11.38
2019-04-20T22:24:05.565Z,11.18
2019-04-20T22:26:54.882Z,11.20
2019-04-20T22:29:30.653Z,11.19
2019-04-20T22:32:14.860Z,11.14
2019-04-20T22:34:57.185Z,11.18
2019-04-20T22:40:31.569Z,11.10
2019-04-20T22:43:17.115Z,10.89
2019-04-20T22:45:57.137Z,10.81
2019-04-20T22:48:23.412Z,10.71
2019-04-20T22:51:12.757Z,10.68
2019-04-20T22:53:42.732Z,10.59
2019-04-20T22:56:19.750Z,10.52
2019-04-20T22:58:50.253Z,10.56
2019-04-20T23:01:19.466Z,10.52
2019-04-20T23:04:01.119Z,10.40
2019-04-20T23:06:44.633Z,10.39
2019-04-20T23:12:33.936Z,10.59
2019-04-20T23:15:28.041Z,10.46
2019-04-20T23:18:02.227Z,10.50
2019-04-20T23:20:37.466Z,10.35
2019-04-20T23:23:11.014Z,10.30
2019-04-20T23:25:43.471Z,10.34
2019-04-20T23:28:11.936Z,10.27
2019-04-20T23:30:44.464Z,10.28
2019-04-20T23:33:18.060Z,10.33
2019-04-20T23:35:56.511Z,10.37
2019-04-20T23:38:26.433Z,10.33
2019-04-20T23:41:44.675Z,10.24
2019-04-20T23:44:33.633Z,10.22
2019-04-20T23:50:38.254Z,10.09
2019-04-20T23:53:22.991Z,10.06
2019-04-20T23:55:33.934Z,10.18
2019-04-20T23:58:30.892Z,10.13
